createdAt,value
2018-04-29T00:01:56.052Z,12.17
2018-04-29T00:04:24.337Z,12.15
2018-04-29T00:06:52.615Z,12.15
2018-04-29T00:09:20.876Z,12.11
2018-04-29T00:11:49.184Z,12.07
2018-04-29T00:14:17.448Z,12.06
2018-04-29T00:16:45.704Z,12.01
2018-04-29T00:19:14.023Z,11.94
2018-04-29T00:21:42.283Z,11.91
2018-04-29T00:24:10.630Z,11.85
2018-04-29T00:26:38.923Z,11.80
2018-04-29T00:29:07.187Z,11.61
2018-04-29T00:31:35.438Z,11.57
2018-04-29T00:34:04.575Z,11.54
2018-04-29T00:36:32.843Z,11.23
2018-04-29T00:39:01.118Z,11.21
2018-04-29T00:41:29.510Z,11.24
2018-04-29T00:43:57.770Z,11.27
2018-04-29T00:46:26.031Z,11.27
2018-04-29T00:48:55.153Z,11.26
2018-04-29T00:51:41.536Z,11.06
2018-04-29T00:54:09.748Z,11.07
2018-04-29T00:56:38.006Z,10.97
2018-04-29T00:59:06.355Z,10.77
2018-04-29T01:01:34.563Z,10.71
2018-04-29T01:04:02.831Z,10.72
2018-04-29T01:06:31.086Z,10.80
2018-04-29T01:08:59.391Z,10.78
2018-04-29T01:11:27.650Z,10.78
2018-04-29T01:13:55.908Z,10.79
2018-04-29T01:16:25.037Z,10.78
2018-04-29T01:18:53.318Z,10.69
2018-04-29T01:21:21.580Z,10.67
2018-04-29T01:23:49.883Z,10.65
2018-04-29T01:26:18.146Z,10.56
2018-04-29T01:28:46.411Z,10.53
2018-04-29T01:31:14.733Z,10.51
2018-04-29T01:33:42.991Z,10.37
2018-04-29T01:36:11.255Z,10.39
2018-04-29T01:38:39.554Z,10.03
2018-04-29T01:41:07.803Z,9.83
2018-04-29T01:43:36.055Z,9.87
2018-04-29T01:46:04.327Z,9.89
2018-04-29T01:48:32.594Z,9.85
2018-04-29T01:51:01.608Z,9.78
2018-04-29T01:53:29.888Z,9.82
2018-04-29T01:55:58.147Z,9.57
2018-04-29T01:58:27.272Z,9.60
2018-04-29T02:00:55.542Z,9.64
2018-04-29T02:03:23.801Z,9.61
2018-04-29T02:05:52.093Z,9.45
2018-04-29T02:08:20.458Z,9.38
2018-04-29T02:10:48.716Z,9.45
2018-04-29T02:13:17.730Z,9.52
2018-04-29T02:15:46.002Z,9.32
2018-04-29T02:18:14.250Z,9.04
2018-04-29T02:20:42.522Z,8.92
2018-04-29T02:23:10.783Z,8.97
2018-04-29T02:25:39.124Z,9.06
2018-04-29T02:28:07.402Z,9.13
2018-04-29T02:30:35.670Z,9.24
2018-04-29T02:33:03.963Z,9.22
2018-04-29T02:35:32.235Z,9.15
2018-04-29T02:38:00.506Z,9.14
2018-04-29T02:40:28.790Z,9.22
2018-04-29T02:42:57.068Z,9.22
2018-04-29T02:45:25.430Z,9.16
2018-04-29T02:47:53.723Z,9.21
2018-04-29T02:50:21.980Z,9.17
2018-04-29T02:52:50.271Z,8.90
2018-04-29T02:55:18.536Z,8.76
2018-04-29T02:57:46.823Z,8.76
2018-04-29T03:00:15.185Z,8.68
2018-04-29T03:02:43.435Z,8.72
2018-04-29T03:05:12.461Z,8.32
2018-04-29T03:07:41.095Z,8.55
2018-04-29T03:10:09.431Z,8.45
2018-04-29T03:12:37.717Z,8.55
2018-04-29T03:15:06.083Z,8.63
2018-04-29T03:17:34.361Z,8.73
2018-04-29T03:20:02.647Z,8.75
2018-04-29T03:22:31.017Z,8.76
2018-04-29T03:24:59.290Z,8.77
2018-04-29T03:27:27.577Z,8.78
2018-04-29T03:29:55.943Z,8.79
2018-04-29T03:32:24.227Z,8.74
2018-04-29T03:34:52.479Z,8.70
2018-04-29T03:37:21.512Z,8.66
2018-04-29T03:39:49.779Z,8.57
2018-04-29T03:42:18.031Z,8.49
2018-04-29T03:44:46.307Z,8.40
2018-04-29T03:47:14.604Z,8.20
2018-04-29T03:49:42.858Z,8.30
2018-04-29T03:52:11.129Z,8.38
2018-04-29T03:54:39.435Z,8.24
2018-04-29T03:57:25.460Z,8.10
2018-04-29T04:00:11.515Z,8.17
2018-04-29T04:02:57.709Z,8.06
2018-04-29T04:05:25.962Z,8.02
2018-04-29T04:07:54.987Z,7.99
2018-04-29T04:10:23.262Z,7.91
2018-04-29T04:12:51.532Z,7.85
2018-04-29T04:15:19.779Z,7.94
2018-04-29T04:17:48.817Z,7.88
2018-04-29T04:20:17.112Z,7.97
2018-04-29T04:22:45.456Z,7.91
2018-04-29T04:25:13.731Z,7.95
2018-04-29T04:27:42.691Z,7.96
2018-04-29T04:30:11.719Z,7.97
2018-04-29T04:32:39.994Z,7.95
2018-04-29T04:35:08.252Z,7.96
2018-04-29T04:37:36.544Z,8.04
2018-04-29T04:40:04.818Z,8.14
2018-04-29T04:42:33.125Z,8.21
2018-04-29T04:45:01.474Z,8.23
2018-04-29T04:47:29.779Z,8.28
2018-04-29T04:49:58.035Z,8.27
2018-04-29T04:52:26.287Z,8.30
2018-04-29T04:54:54.563Z,8.31
2018-04-29T04:57:23.591Z,8.39
2018-04-29T04:59:51.959Z,8.51
2018-04-29T05:02:20.247Z,8.60
2018-04-29T05:04:48.499Z,8.65
2018-04-29T05:07:16.779Z,8.71
2018-04-29T05:09:45.043Z,8.82
2018-04-29T05:12:13.298Z,8.91
2018-04-29T05:14:42.319Z,9.02
2018-04-29T05:17:10.591Z,9.00
2018-04-29T05:19:38.855Z,9.03
2018-04-29T05:22:07.925Z,9.19
2018-04-29T05:24:36.169Z,9.24
2018-04-29T05:27:04.419Z,9.37
2018-04-29T05:29:32.670Z,9.42
2018-04-29T05:32:01.788Z,9.52
2018-04-29T05:34:30.067Z,9.33
2018-04-29T05:36:58.323Z,9.51
2018-04-29T05:39:27.361Z,9.69
2018-04-29T05:41:55.631Z,9.83
2018-04-29T05:44:23.998Z,10.02
2018-04-29T05:46:52.295Z,10.20
2018-04-29T05:49:20.571Z,10.25
2018-04-29T05:51:48.832Z,10.39
2018-04-29T05:54:17.109Z,10.44
2018-04-29T05:56:45.400Z,10.50
2018-04-29T05:59:13.656Z,10.69
2018-04-29T06:01:41.927Z,10.93
2018-04-29T06:04:10.183Z,11.02
2018-04-29T06:06:39.347Z,11.15
2018-04-29T06:09:07.691Z,11.17
2018-04-29T06:11:35.948Z,11.35
2018-04-29T06:14:04.263Z,11.51
2018-04-29T06:16:32.548Z,11.76
2018-04-29T06:19:00.803Z,11.72
2018-04-29T06:21:29.916Z,11.88
2018-04-29T06:23:58.268Z,11.98
2018-04-29T06:26:26.535Z,11.81
2018-04-29T06:28:54.805Z,11.85
2018-04-29T06:31:23.103Z,12.04
2018-04-29T06:33:51.367Z,12.30
2018-04-29T06:36:19.652Z,12.57
2018-04-29T06:38:47.932Z,12.58
2018-04-29T06:41:16.187Z,12.68
2018-04-29T06:43:44.468Z,12.93
2018-04-29T06:46:12.722Z,13.13
2018-04-29T06:48:41.846Z,13.21
2018-04-29T06:51:10.194Z,13.33
2018-04-29T06:53:39.222Z,13.18
2018-04-29T06:56:07.475Z,13.14
2018-04-29T06:58:35.750Z,12.62
2018-04-29T07:01:04.010Z,12.78
2018-04-29T07:03:33.054Z,12.85
2018-04-29T07:06:01.318Z,12.99
2018-04-29T07:08:29.592Z,13.27
2018-04-29T07:10:57.860Z,13.45
2018-04-29T07:13:26.118Z,13.48
2018-04-29T07:15:55.161Z,13.40
2018-04-29T07:18:23.447Z,13.53
2018-04-29T07:20:51.710Z,13.89
2018-04-29T07:23:19.991Z,14.28
2018-04-29T07:25:48.345Z,14.60
2018-04-29T07:28:16.602Z,14.66
2018-04-29T07:30:44.879Z,14.76
2018-04-29T07:33:13.198Z,14.96
2018-04-29T07:35:41.550Z,15.15
2018-04-29T07:38:09.822Z,15.44
2018-04-29T07:40:38.083Z,15.78
2018-04-29T07:43:06.366Z,16.01
2018-04-29T07:45:34.630Z,16.13
2018-04-29T07:48:03.753Z,16.08
2018-04-29T07:50:32.132Z,16.36
2018-04-29T07:53:00.410Z,16.51
2018-04-29T07:55:28.685Z,16.88
2018-04-29T07:57:56.998Z,17.17
2018-04-29T08:00:25.259Z,17.54
2018-04-29T08:02:53.618Z,17.69
2018-04-29T08:05:21.882Z,18.00
2018-04-29T08:07:50.170Z,18.07
2018-04-29T08:10:18.456Z,18.14
2018-04-29T08:12:46.718Z,18.37
2018-04-29T08:15:15.103Z,18.49
2018-04-29T08:17:45.410Z,18.38
2018-04-29T08:20:13.696Z,18.31
2018-04-29T08:22:42.038Z,18.76
2018-04-29T08:25:10.252Z,18.88
2018-04-29T08:27:38.527Z,18.95
2018-04-29T08:30:06.847Z,19.06
2018-04-29T08:32:35.080Z,18.75
2018-04-29T08:35:03.359Z,19.13
2018-04-29T08:37:31.642Z,18.98
2018-04-29T08:39:59.902Z,18.73
2018-04-29T08:42:28.292Z,18.64
2018-04-29T08:44:56.547Z,18.56
2018-04-29T08:47:24.870Z,18.75
2018-04-29T08:49:53.155Z,19.04
2018-04-29T08:52:21.513Z,18.90
2018-04-29T08:54:49.777Z,18.76
2018-04-29T08:57:18.157Z,18.63
2018-04-29T08:59:46.426Z,18.53
2018-04-29T09:02:14.712Z,18.35
2018-04-29T09:04:43.001Z,18.42
2018-04-29T09:07:11.261Z,18.32
2018-04-29T09:09:39.638Z,18.18
2018-04-29T09:12:07.937Z,18.17
2018-04-29T09:14:36.212Z,18.32
2018-04-29T09:17:04.507Z,18.61
2018-04-29T09:19:32.883Z,18.98
2018-04-29T09:22:01.223Z,19.13
2018-04-29T09:24:29.508Z,19.48
2018-04-29T09:26:57.776Z,19.24
2018-04-29T09:29:26.061Z,18.24
2018-04-29T09:31:54.339Z,18.24
2018-04-29T09:34:22.607Z,18.61
2018-04-29T09:36:50.878Z,19.08
2018-04-29T09:39:19.151Z,19.33
2018-04-29T09:41:47.411Z,19.59
2018-04-29T09:44:16.441Z,20.14
2018-04-29T09:46:44.801Z,20.45
2018-04-29T09:49:13.087Z,20.95
2018-04-29T09:51:41.382Z,21.40
2018-04-29T09:54:09.810Z,21.63
2018-04-29T09:56:38.000Z,21.73
2018-04-29T09:59:06.270Z,21.89
2018-04-29T10:01:35.471Z,21.80
2018-04-29T10:04:03.763Z,21.98
2018-04-29T10:06:32.019Z,21.75
2018-04-29T10:09:00.320Z,21.51
2018-04-29T10:11:28.592Z,21.68
2018-04-29T10:13:56.876Z,21.57
2018-04-29T10:16:25.959Z,21.81
2018-04-29T10:18:54.291Z,21.89
2018-04-29T10:21:22.617Z,21.59
2018-04-29T10:23:50.901Z,21.53
2018-04-29T10:26:19.149Z,21.32
2018-04-29T10:28:47.435Z,21.26
2018-04-29T10:31:15.724Z,20.94
2018-04-29T10:33:43.987Z,20.45
2018-04-29T10:36:12.275Z,20.34
2018-04-29T10:38:40.535Z,20.47
2018-04-29T10:41:08.825Z,20.86
2018-04-29T10:43:37.082Z,20.97
2018-04-29T10:46:06.199Z,21.24
2018-04-29T10:48:34.580Z,21.77
2018-04-29T10:51:02.899Z,22.15
2018-04-29T10:53:31.174Z,22.38
2018-04-29T10:56:00.223Z,22.25
2018-04-29T10:58:28.487Z,22.52
2018-04-29T11:00:56.762Z,22.86
2018-04-29T11:03:25.058Z,22.82
2018-04-29T11:05:53.334Z,23.36
2018-04-29T11:08:21.619Z,23.56
2018-04-29T11:10:49.988Z,23.55
2018-04-29T11:13:18.250Z,23.53
2018-04-29T11:15:46.527Z,23.79
2018-04-29T11:18:14.791Z,23.98
2018-04-29T11:20:43.830Z,24.10
2018-04-29T11:23:12.087Z,23.53
2018-04-29T11:25:40.349Z,23.16
2018-04-29T11:28:08.644Z,23.27
2018-04-29T11:30:37.104Z,23.43
2018-04-29T11:33:05.367Z,23.57
2018-04-29T11:35:34.423Z,23.59
2018-04-29T11:38:02.774Z,23.96
2018-04-29T11:40:31.139Z,23.94
2018-04-29T11:42:59.318Z,23.49
2018-04-29T11:45:27.602Z,23.87
2018-04-29T11:47:55.858Z,23.99
2018-04-29T11:50:24.150Z,23.93
2018-04-29T11:52:52.402Z,24.38
2018-04-29T11:55:20.662Z,24.25
2018-04-29T11:57:49.699Z,24.70
2018-04-29T12:00:17.958Z,25.07
2018-04-29T12:02:46.218Z,24.77
2018-04-29T12:05:15.278Z,24.87
2018-04-29T12:07:43.531Z,25.52
2018-04-29T12:10:11.793Z,25.69
2018-04-29T12:12:40.067Z,25.93
2018-04-29T12:15:08.343Z,25.96
2018-04-29T12:17:36.611Z,25.78
2018-04-29T12:20:04.900Z,26.04
2018-04-29T12:22:33.155Z,25.88
2018-04-29T12:25:01.419Z,25.53
2018-04-29T12:27:30.499Z,26.08
2018-04-29T12:29:58.768Z,25.80
2018-04-29T12:32:27.044Z,26.11
2018-04-29T12:34:55.319Z,26.02
2018-04-29T12:37:23.597Z,26.24
2018-04-29T12:39:51.986Z,26.73
2018-04-29T12:42:20.138Z,26.85
2018-04-29T12:44:48.406Z,27.24
2018-04-29T12:47:16.682Z,28.03
2018-04-29T12:49:44.947Z,28.27
2018-04-29T12:52:13.251Z,28.23
2018-04-29T12:54:41.486Z,28.01
2018-04-29T12:57:09.741Z,28.23
2018-04-29T12:59:38.000Z,28.07
2018-04-29T13:02:07.043Z,27.62
2018-04-29T13:04:35.302Z,27.98
2018-04-29T13:07:03.600Z,28.11
2018-04-29T13:09:31.870Z,27.92
2018-04-29T13:12:00.131Z,27.95
2018-04-29T13:14:28.407Z,28.09
2018-04-29T13:16:56.665Z,27.75
2018-04-29T13:19:24.938Z,27.58
2018-04-29T13:21:54.003Z,27.51
2018-04-29T13:24:22.255Z,27.14
2018-04-29T13:26:50.521Z,27.27
2018-04-29T13:29:18.809Z,27.36
2018-04-29T13:31:47.075Z,27.36
2018-04-29T13:34:15.340Z,27.48
2018-04-29T13:36:43.616Z,27.70
2018-04-29T13:39:11.898Z,27.80
2018-04-29T13:41:40.166Z,28.15
2018-04-29T13:44:08.483Z,28.95
2018-04-29T13:46:36.743Z,29.71
2018-04-29T13:49:05.027Z,30.96
2018-04-29T13:51:33.334Z,31.92
2018-04-29T13:54:02.366Z,32.76
2018-04-29T13:56:30.649Z,32.91
2018-04-29T13:58:58.919Z,33.65
2018-04-29T14:01:27.292Z,33.81
2018-04-29T14:03:55.548Z,33.30
2018-04-29T14:06:23.832Z,32.74
2018-04-29T14:08:52.103Z,33.19
2018-04-29T14:11:20.364Z,32.85
2018-04-29T14:13:50.146Z,33.53
2018-04-29T14:16:18.408Z,34.57
2018-04-29T14:18:46.678Z,34.38
2018-04-29T14:21:14.947Z,35.08
2018-04-29T14:23:43.211Z,35.44
2018-04-29T14:26:11.468Z,35.84
2018-04-29T14:28:39.750Z,35.75
2018-04-29T14:31:08.029Z,36.23
2018-04-29T14:33:36.322Z,36.10
2018-04-29T14:36:04.577Z,35.19
2018-04-29T14:38:32.841Z,35.34
2018-04-29T14:41:01.884Z,35.07
2018-04-29T14:43:30.241Z,35.23
2018-04-29T14:45:58.518Z,35.64
2018-04-29T14:48:27.102Z,35.80
2018-04-29T14:50:55.359Z,35.69
2018-04-29T14:53:23.647Z,36.15
2018-04-29T14:55:51.908Z,34.89
2018-04-29T14:58:20.944Z,35.85
2018-04-29T15:00:49.215Z,36.17
2018-04-29T15:03:17.479Z,36.41
2018-04-29T15:05:45.738Z,36.36
2018-04-29T15:08:14.015Z,35.98
2018-04-29T15:10:42.278Z,36.64
2018-04-29T15:13:11.307Z,36.88
2018-04-29T15:15:39.586Z,37.08
2018-04-29T15:18:07.855Z,37.48
2018-04-29T15:20:36.139Z,37.26
2018-04-29T15:23:04.410Z,37.01
2018-04-29T15:25:32.665Z,36.98
2018-04-29T15:28:00.942Z,36.28
2018-04-29T15:30:29.195Z,35.98
2018-04-29T15:32:58.219Z,35.29
2018-04-29T15:35:26.499Z,34.78
2018-04-29T15:37:55.993Z,34.56
2018-04-29T15:40:25.019Z,33.06
2018-04-29T15:42:53.377Z,32.18
2018-04-29T15:45:21.636Z,30.99
2018-04-29T15:47:49.890Z,30.58
2018-04-29T15:50:18.943Z,30.09
2018-04-29T15:52:47.195Z,29.40
2018-04-29T15:55:15.462Z,29.28
2018-04-29T15:57:43.754Z,28.63
2018-04-29T16:00:12.011Z,28.52
2018-04-29T16:02:40.294Z,28.68
2018-04-29T16:05:08.558Z,28.47
2018-04-29T16:07:37.578Z,28.42
2018-04-29T16:10:05.867Z,28.21
2018-04-29T16:12:34.135Z,27.91
2018-04-29T16:15:02.400Z,27.34
2018-04-29T16:17:30.670Z,26.80
2018-04-29T16:19:58.938Z,26.70
2018-04-29T16:22:27.196Z,26.48
2018-04-29T16:24:56.230Z,26.13
2018-04-29T16:27:24.498Z,25.66
2018-04-29T16:29:52.754Z,25.69
2018-04-29T16:32:21.039Z,25.65
2018-04-29T16:34:49.302Z,25.54
2018-04-29T16:37:18.327Z,25.71
2018-04-29T16:39:46.608Z,25.63
2018-04-29T16:42:14.872Z,25.52
2018-04-29T16:44:43.199Z,25.23
2018-04-29T16:47:11.443Z,25.10
2018-04-29T16:49:39.706Z,25.13
2018-04-29T16:52:07.968Z,25.17
2018-04-29T16:54:36.242Z,25.08
2018-04-29T16:57:04.512Z,24.87
2018-04-29T16:59:32.790Z,24.76
2018-04-29T17:02:01.100Z,24.86
2018-04-29T17:04:29.374Z,25.05
2018-04-29T17:06:57.652Z,24.88
2018-04-29T17:09:25.981Z,24.89
2018-04-29T17:11:54.196Z,24.78
2018-04-29T17:14:22.534Z,24.80
2018-04-29T17:16:50.749Z,24.76
2018-04-29T17:19:19.021Z,24.56
2018-04-29T17:21:47.286Z,24.56
2018-04-29T17:24:15.567Z,24.22
2018-04-29T17:26:43.830Z,24.29
2018-04-29T17:29:12.202Z,24.23
2018-04-29T17:31:40.395Z,24.15
2018-04-29T17:34:08.680Z,24.12
2018-04-29T17:36:36.938Z,24.02
2018-04-29T17:39:05.254Z,23.94
2018-04-29T17:41:34.251Z,23.93
2018-04-29T17:44:02.512Z,23.92
2018-04-29T17:46:30.790Z,24.19
2018-04-29T17:48:59.056Z,24.04
2018-04-29T17:51:28.146Z,24.03
2018-04-29T17:53:56.450Z,24.03
2018-04-29T17:56:24.710Z,23.95
2018-04-29T17:58:52.987Z,23.99
2018-04-29T18:01:21.368Z,23.55
2018-04-29T18:03:49.579Z,23.44
2018-04-29T18:06:17.836Z,23.50
2018-04-29T18:08:46.120Z,23.43
2018-04-29T18:11:14.470Z,23.35
2018-04-29T18:13:42.765Z,23.27
2018-04-29T18:16:11.147Z,22.98
2018-04-29T18:18:39.473Z,22.95
2018-04-29T18:21:07.800Z,22.79
2018-04-29T18:23:36.922Z,22.66
2018-04-29T18:26:05.985Z,22.74
2018-04-29T18:28:34.653Z,22.71
2018-04-29T18:31:04.154Z,22.53
2018-04-29T18:33:34.801Z,22.21
2018-04-29T18:36:04.773Z,22.19
2018-04-29T18:38:34.588Z,21.99
2018-04-29T18:41:06.041Z,21.77
2018-04-29T18:43:35.817Z,21.76
2018-04-29T18:46:06.394Z,21.70
2018-04-29T18:48:36.986Z,21.50
2018-04-29T18:51:07.084Z,21.51
2018-04-29T18:53:36.802Z,21.44
2018-04-29T18:56:07.029Z,21.28
2018-04-29T18:58:36.895Z,21.11
2018-04-29T19:01:07.635Z,21.14
2018-04-29T19:03:37.752Z,21.05
2018-04-29T19:06:08.725Z,20.81
2018-04-29T19:08:38.637Z,20.63
2018-04-29T19:11:08.917Z,20.63
2018-04-29T19:13:38.934Z,20.60
2018-04-29T19:16:09.794Z,20.43
2018-04-29T19:18:39.970Z,20.35
2018-04-29T19:21:10.071Z,20.35
2018-04-29T19:23:39.848Z,20.31
2018-04-29T19:26:13.783Z,20.18
2018-04-29T19:28:43.609Z,20.21
2018-04-29T19:31:13.604Z,20.08
2018-04-29T19:33:43.522Z,20.00
2018-04-29T19:36:13.512Z,19.89
2018-04-29T19:38:43.462Z,19.84
2018-04-29T19:41:13.041Z,19.83
2018-04-29T19:43:42.319Z,19.86
2018-04-29T19:46:12.548Z,19.83
2018-04-29T19:48:41.981Z,19.72
2018-04-29T19:51:11.425Z,19.63
2018-04-29T19:53:41.410Z,19.64
2018-04-29T19:56:10.822Z,19.41
2018-04-29T19:58:40.937Z,19.53
2018-04-29T20:01:10.317Z,19.50
2018-04-29T20:03:39.763Z,19.47
2018-04-29T20:06:09.317Z,19.47
2018-04-29T20:08:38.737Z,19.48
2018-04-29T20:11:08.156Z,19.33
2018-04-29T20:13:37.693Z,19.43
2018-04-29T20:16:07.073Z,19.37
2018-04-29T20:18:36.469Z,19.16
2018-04-29T20:21:05.791Z,19.21
2018-04-29T20:23:35.305Z,19.21
2018-04-29T20:26:04.653Z,19.06
2018-04-29T20:28:34.040Z,19.09
2018-04-29T20:31:04.087Z,19.08
2018-04-29T20:33:33.413Z,19.01
2018-04-29T20:36:02.697Z,19.05
2018-04-29T20:38:31.984Z,18.99
2018-04-29T20:41:01.518Z,18.91
2018-04-29T20:43:30.789Z,18.84
2018-04-29T20:46:00.328Z,18.88
2018-04-29T20:48:31.240Z,18.94
2018-04-29T20:51:01.208Z,18.90
2018-04-29T20:53:32.079Z,18.88
2018-04-29T20:56:01.906Z,18.86
2018-04-29T20:58:30.913Z,18.83
2018-04-29T21:01:00.703Z,18.77
2018-04-29T21:03:29.457Z,18.73
2018-04-29T21:05:58.389Z,18.78
2018-04-29T21:08:27.136Z,18.66
2018-04-29T21:10:55.481Z,18.75
2018-04-29T21:13:24.659Z,18.80
2018-04-29T21:15:53.738Z,18.74
2018-04-29T21:18:22.003Z,18.70
2018-04-29T21:20:50.278Z,18.77
2018-04-29T21:23:18.579Z,18.87
2018-04-29T21:25:46.839Z,18.85
2018-04-29T21:28:15.131Z,18.81
2018-04-29T21:30:43.392Z,18.87
2018-04-29T21:33:11.747Z,18.97
2018-04-29T21:35:40.034Z,18.78
2018-04-29T21:38:08.422Z,18.65
2018-04-29T21:40:36.576Z,18.77
2018-04-29T21:43:04.847Z,18.76
2018-04-29T21:45:33.155Z,18.76
2018-04-29T21:48:01.422Z,18.72
2018-04-29T21:50:29.687Z,18.78
2018-04-29T21:52:57.953Z,18.64
2018-04-29T21:55:26.236Z,18.69
2018-04-29T21:57:54.504Z,18.72
2018-04-29T22:00:22.763Z,18.77
2018-04-29T22:02:51.803Z,18.71
2018-04-29T22:05:20.075Z,18.74
2018-04-29T22:07:48.365Z,18.67
2018-04-29T22:10:16.626Z,18.76
2018-04-29T22:12:44.884Z,18.66
2018-04-29T22:15:13.167Z,18.65
2018-04-29T22:17:41.428Z,18.52
2018-04-29T22:20:09.721Z,18.65
2018-04-29T22:22:38.926Z,18.63
2018-04-29T22:25:07.218Z,18.61
2018-04-29T22:27:35.471Z,18.63
2018-04-29T22:30:03.741Z,18.71
2018-04-29T22:32:32.019Z,18.39
2018-04-29T22:35:00.302Z,18.58
2018-04-29T22:37:28.555Z,18.62
2018-04-29T22:39:56.831Z,18.72
2018-04-29T22:42:25.127Z,18.60
2018-04-29T22:44:53.391Z,18.53
2018-04-29T22:47:21.658Z,18.62
2018-04-29T22:49:49.930Z,18.62
2018-04-29T22:52:18.197Z,18.88
2018-04-29T22:54:47.240Z,18.88
2018-04-29T22:57:15.496Z,18.65
2018-04-29T22:59:43.790Z,18.83
2018-04-29T23:02:12.111Z,18.85
2018-04-29T23:04:41.167Z,18.87
2018-04-29T23:07:09.433Z,18.78
2018-04-29T23:09:37.742Z,18.89
2018-04-29T23:12:06.105Z,18.80
2018-04-29T23:14:34.374Z,18.63
2018-04-29T23:17:02.656Z,18.46
2018-04-29T23:19:30.919Z,18.66
2018-04-29T23:21:59.194Z,18.65
2018-04-29T23:24:27.483Z,18.77
2018-04-29T23:26:55.742Z,18.78
2018-04-29T23:29:24.023Z,18.76
2018-04-29T23:31:52.288Z,18.81
2018-04-29T23:34:20.566Z,18.78
2018-04-29T23:36:49.062Z,18.63
2018-04-29T23:39:18.094Z,18.56
2018-04-29T23:41:47.140Z,18.35
2018-04-29T23:44:15.419Z,18.26
2018-04-29T23:46:43.686Z,18.35
2018-04-29T23:49:11.946Z,18.38
2018-04-29T23:51:40.259Z,18.54
2018-04-29T23:54:08.528Z,18.28
2018-04-29T23:56:36.791Z,18.51
2018-04-29T23:59:05.078Z,18.75
